Tiempo atmosférico en la estación meteorológica de Cartaya, Huelva (15 m.)



Fecha
DESCASC
Temp. máxima en grados centígrados (hora)
DESCASC
Temp. mínima en grados centígrados (hora)
DESCASC
Temp. media en grados centígrados
DESCASC
Racha de viento máxima en m/sg (hora)
DESCASC
Velocidad máxima media en intervalos de 10 minutos(hora)
DESCASC
Precipitaciones diarias en mm
DESCASC
Precipitaciones de 00:00 a 06:00 en mm
DESCASC
Precipitaciones de 06:00 a 12:00 en mm
DESCASC
Precipitaciones de 12:00 a 18:00 en mm
DESCASC
Precipitaciones de 18:00 a 24:00 en mm
DESCASC
10-07-2020 26.8 (12:30) 14.9 (05:40) 20.8 6.67 (17:00) 4.44 (16:40) 0 0 0 0 0
09-07-2020 25.1 (14:50) 15.7 (06:10) 20.4 8.33 (11:30) 4.44 (11:50) 0 0 0 0 0
08-07-2020 32.8 (13:30) 20.5 (08:10) 26.6 8.33 (14:50) 5.56 (14:50) 0 0 0 0 0
07-07-2020 33.5 (16:40) 16.9 (07:20) 25.2 7.5 (20:10) 4.17 (18:10) 0 0 0 0 0
06-07-2020 30.9 (11:20) 18.9 (00:00) 24.9 8.61 (18:10) 5 (16:10) 0 0 0 0 0
05-07-2020 33.9 (12:50) 15.5 (00:00) 24.7 8.06 (18:00) 5.28 (18:10) 0 0 0 0 0
04-07-2020 29.7 (17:20) 14.7 (00:00) 22.2 7.5 (19:40) 4.72 (16:30) 0 0 0 0 0
03-07-2020 30.6 (13:50) 15.5 (07:40) 23.1 9.72 (14:50) 6.67 (14:50) 0 0 0 0 0
02-07-2020 34.4 (15:00) 19.4 (00:00) 26.9 10 (14:40) 5.83 (15:50) 0 0 0 0 0
01-07-2020 25.4 (15:50) 15.3 (00:00) 20.3 8.89 (18:40) 5.56 (18:20) 0 0 0 0 0
30-06-2020 28.6 (17:30) 18 (00:00) 23.3 5.83 (20:20) 4.17 (20:10) 0 0 0 0 0
29-06-2020 30.2 (11:10) 20.7 (00:00) 25.5 7.5 (04:20) 4.72 (17:00) 0 0 0 0 0
28-06-2020 32.1 (13:10) 19.9 (00:00) 26 9.17 (18:20) 5.83 (17:50) 0 0 0 0 0
27-06-2020 30.6 (14:00) 17.7 (00:00) 24.2 11.94 (15:50) 6.39 (15:30) 0 0 0 0 0
26-06-2020 28.4 (13:40) 14.5 (00:00) 21.4 10 (16:50) 6.39 (16:20) 0 0 0 0 0
25-06-2020 25.2 (15:00) 15.7 (00:00) 20.5 6.67 (18:20) 4.44 (18:10) 0 0 0 0 0
24-06-2020 25.9 (15:50) 16.1 (00:00) 21 5.83 (16:30) 3.61 (16:50) 0 0 0 0 0
23-06-2020 29.7 (11:50) 16.5 (00:00) 23.1 7.5 (19:30) 5 (14:30) 0 0 0 0 0
22-06-2020 34.6 (12:20) 18 (00:00) 26.3 7.22 (04:50) 4.17 (16:40) 0 0 0 0 0
21-06-2020 36 (15:40) 17 (00:00) 26.5 10 (18:20) 5.83 (18:20) 0 0 0 0 0
20-06-2020 27.5 (14:50) 14.3 (00:00) 20.9 9.17 (19:00) 5.28 (19:00) 0 0 0 0 0
19-06-2020 26.1 (13:10) 15 (00:00) 20.6 10 (17:10) 6.39 (17:00) 0 0 0 0 0
18-06-2020 27.1 (13:40) 14.4 (00:00) 20.8 10.28 (16:20) 6.11 (15:50) 0 0 0 0 0
17-06-2020 28.2 (14:50) 16.5 (00:00) 22.4 10.83 (15:20) 6.11 (18:10) 0 0 0 0 0
16-06-2020 28.1 (19:50) 15.6 (00:00) 21.9 11.94 (17:20) 6.94 (17:20) 0 0 0 0 0
15-06-2020 24.1 (11:50) 13.9 (00:00) 19 10.83 (15:50) 6.67 (16:30) 0 0 0 0 0
14-06-2020 22.2 (15:50) 14.2 (00:00) 18.2 11.11 (17:50) 6.11 (17:00) 0 0 0 0 0
13-06-2020 22 (16:50) 9.4 (00:00) 15.7 10.28 (18:30) 5.83 (17:30) 0 0 0 0 0
12-06-2020 21.4 (12:00) 16 (00:00) 18.7 13.61 (19:00) 7.78 (19:00) 0 0 0 0 0

Gráficas

Temp. máximas Temp. mínimas Temp. medias Precipitaciones Rachas de viento máximas Velocidades máximas media en intervalos de 10 minutos

Datos horarios

Fecha y hora oficial Temperatura (ºC) Velocidad del viento (km/h) Dirección del viento Racha (km/h) Dirección de racha Precipitación (mm) Presión (hPa) Tendencia (hPa) Humedad (%)
2020-07-11 23:00:00 26.3 3 Sudoeste 15 Oeste 0 -- -- 60
2020-07-11 22:00:00 28.1 9 Sudoeste 22 Oeste 0 -- -- 59
2020-07-11 21:00:00 29.9 12 Oeste 23 Oeste 0 -- -- 51
2020-07-11 20:00:00 30.6 15 Oeste 22 Sudoeste 0 -- -- 49
2020-07-11 19:00:00 30.6 13 Sudoeste 23 Sudoeste 0 -- -- 53
2020-07-11 18:00:00 30.5 15 Sudoeste 24 Sudoeste 0 -- -- 53
2020-07-11 17:00:00 30.5 13 Sudoeste 24 Sudoeste 0 -- -- 53
2020-07-11 16:00:00 30.3 13 Sudoeste 21 Sudoeste 0 -- -- 52
2020-07-11 15:00:00 30 14 Sudoeste 21 Sudoeste 0 -- -- 50
2020-07-11 14:00:00 29.9 12 Sudoeste 19 Sur 0 -- -- 52
2020-07-11 13:00:00 29.8 10 Sudoeste 15 Sudoeste 0 -- -- 53
2020-07-11 12:00:00 29.1 8 Sur 12 Sur 0 -- -- 52
2020-07-11 11:00:00 27.7 6 Sur 11 Sur 0 -- -- 56
2020-07-11 10:00:00 26.1 4 Sudoeste 7 Sudoeste 0 -- -- 58
2020-07-11 09:00:00 22.4 4 Norte 9 Norte 0 -- -- 84
2020-07-11 08:00:00 18.9 5 Norte 8 Norte 0 -- -- 94
2020-07-11 07:00:00 18.5 5 Nordeste 9 Nordeste 0 -- -- 94
2020-07-11 06:00:00 18.1 3 Noroeste 5 Sudeste 0 -- -- 88
2020-07-11 05:00:00 20.9 4 Sudeste 8 Sudeste 0 -- -- 92
2020-07-11 04:00:00 21.4 5 Sudeste 11 Este 0 -- -- 89
2020-07-11 03:00:00 19.6 5 Norte 8 Norte 0 -- -- 82
2020-07-11 02:00:00 19.5 5 Nordeste 6 Nordeste 0 -- -- 85
2020-07-11 01:00:00 20.7 2 Norte 4 Norte 0 -- -- 81
2020-07-11 00:00:00 22.6 3 Noroeste 13 Sudoeste 0 -- -- 77
2020-07-10 23:00:00 23.2 6 Oeste 15 Oeste 0 -- -- 79
2020-07-10 22:00:00 23.7 9 Oeste 15 Oeste 0 -- -- 80
2020-07-10 21:00:00 25 8 Sudoeste 17 Sudoeste 0 -- -- 73
2020-07-10 20:00:00 25.5 12 Sudoeste 21 Sudoeste 0 -- -- 72
2020-07-10 19:00:00 26.3 13 Sudoeste 22 Sudoeste 0 -- -- 67
2020-07-10 18:00:00 26.6 12 Sudoeste 24 Sudoeste 0 -- -- 66
2020-07-10 17:00:00 25.7 16 Sudoeste 24 Sudoeste 0 -- -- 73
2020-07-10 16:00:00 26.4 12 Sudoeste 22 Sudoeste 0 -- -- 69
2020-07-10 15:00:00 26.4 10 Sur 24 Sudoeste 0 -- -- 65
2020-07-10 14:00:00 26.5 13 Sudeste 22 Sudeste 0 -- -- 66
2020-07-10 13:00:00 26.6 12 Sudeste 20 Sudeste 0 -- -- 67
2020-07-10 12:00:00 26 13 Sudeste 17 Sudeste 0 -- -- 67
2020-07-10 11:00:00 24.6 9 Sudoeste 12 Sudoeste 0 -- -- 71
2020-07-10 10:00:00 23.9 4 Norte 12 Norte 0 -- -- 67
2020-07-10 09:00:00 20.5 7 Noroeste 14 Norte 0 -- -- 81
2020-07-10 08:00:00 16.7 4 Norte 7 Norte 0 -- -- 96
2020-07-10 07:00:00 15.3 4 Norte 6 Norte 0 -- -- 95
2020-07-10 06:00:00 15 3 Norte 4 Norte 0 -- -- 92
2020-07-10 05:00:00 15.6 2 Sudeste 6 Nordeste 0 -- -- 91
2020-07-10 04:00:00 16 3 Norte 5 Norte 0 -- -- 90
2020-07-10 03:00:00 16.7 3 Noroeste 4 Norte 0 -- -- 89
2020-07-10 02:00:00 18 0 Calma 6 Este 0 -- -- 88
2020-07-10 01:00:00 18.6 3 Norte 6 Norte 0 -- -- 87
2020-07-10 00:00:00 20 2 Norte 10 Oeste 0 -- -- 83
2020-07-09 23:00:00 21.4 8 Oeste 14 Oeste 0 -- -- 83
2020-07-09 22:00:00 21.6 8 Sudoeste 16 Sudoeste 0 -- -- 82
2020-07-09 21:00:00 22.3 10 Sudoeste 19 Sudoeste 0 -- -- 78
2020-07-09 20:00:00 22.6 12 Sudoeste 22 Sudoeste 0 -- -- 75
2020-07-09 19:00:00 23.4 14 Sudoeste 23 Sudoeste 0 -- -- 72
2020-07-09 18:00:00 24.3 13 Sudoeste 20 Sudoeste 0 -- -- 67
2020-07-09 17:00:00 24.3 12 Sur 21 Sudoeste 0 -- -- 67
2020-07-09 16:00:00 24.7 13 Sur 23 Sudeste 0 -- -- 64
2020-07-09 15:00:00 24.9 12 Sur 20 Sur 0 -- -- 66
2020-07-09 14:00:00 24.7 10 Sur 19 Sur 0 -- -- 66
2020-07-09 13:00:00 24.6 10 Sudeste 25 Sur 0 -- -- 67
2020-07-09 12:00:00 24.8 15 Sudeste 30 Este 0 -- -- 68
2020-07-09 11:00:00 24.3 9 Este 19 Este 0 -- -- 68
2020-07-09 10:00:00 22.7 8 Nordeste 17 Nordeste 0 -- -- 72
2020-07-09 09:00:00 19.9 8 Noroeste 15 Noroeste 0 -- -- 78
2020-07-09 08:00:00 18.1 5 Noroeste 11 Noroeste 0 -- -- 84
2020-07-09 07:00:00 16.4 5 Norte 12 Noroeste 0 -- -- 90
2020-07-09 06:00:00 15.9 6 Norte 11 Noroeste 0 -- -- 89
2020-07-09 05:00:00 16.9 7 Norte 13 Norte 0 -- -- 86
2020-07-09 04:00:00 17.6 7 Norte 14 Noroeste 0 -- -- 83
2020-07-09 03:00:00 18.3 7 Norte 12 Norte 0 -- -- 79
2020-07-09 02:00:00 19.9 6 Norte 19 Norte 0 -- -- 73
2020-07-09 01:00:00 20.6 3 Noroeste 13 Norte 0 -- -- 68
2020-07-09 00:00:00 21.2 6 Norte 11 Noroeste 0 -- -- 63
2020-07-08 23:00:00 21.3 5 Norte 10 Noroeste 0 -- -- 74
2020-07-08 22:00:00 23.1 8 Sudoeste 23 Sudoeste 0 -- -- 76
2020-07-08 21:00:00 25.5 10 Sudoeste 19 Oeste 0 -- -- 64
2020-07-08 20:00:00 25.6 10 Sudoeste 22 Sudoeste 0 -- -- 63
2020-07-08 19:00:00 26 13 Sudoeste 23 Sudoeste 0 -- -- 64
2020-07-08 18:00:00 25.9 14 Sudoeste 24 Sudoeste 0 -- -- 65
2020-07-08 17:00:00 26.2 15 Sudoeste 27 Sudoeste 0 -- -- 65
2020-07-08 16:00:00 25.8 19 Sudoeste 30 Sudoeste 0 -- -- 68
2020-07-08 15:00:00 27.1 16 Sudoeste 30 Sudoeste 0 -- -- 59
2020-07-08 14:00:00 29.2 15 Sudoeste 23 Sudoeste 0 -- -- 50
2020-07-08 13:00:00 31.4 11 Oeste 29 Noroeste 0 -- -- 35
2020-07-08 12:00:00 28.3 13 Noroeste 28 Oeste 0 -- -- 45
2020-07-08 11:00:00 25.3 12 Noroeste 24 Noroeste 0 -- -- 55
2020-07-08 10:00:00 23.2 10 Noroeste 26 Noroeste 0 -- -- 61
2020-07-08 09:00:00 21.2 14 Noroeste 29 Noroeste 0 -- -- 67
2020-07-08 08:00:00 20.6 14 Noroeste 27 Noroeste 0 -- -- 67
2020-07-08 07:00:00 21.2 12 Noroeste 25 Noroeste 0 -- -- 61
2020-07-08 06:00:00 22.7 12 Noroeste 24 Noroeste 0 -- -- 54
2020-07-08 05:00:00 24.3 12 Noroeste 26 Noroeste 0 -- -- 46
2020-07-08 04:00:00 25.3 10 Noroeste 21 Noroeste 0 -- -- 40
2020-07-08 03:00:00 27.5 6 Noroeste 19 Oeste 0 -- -- 33
2020-07-08 02:00:00 26.4 4 Noroeste 10 Norte 0 -- -- 36
2020-07-08 01:00:00 26.9 5 Noroeste 12 Noroeste 0 -- -- 35
2020-07-08 00:00:00 25.6 4 Noroeste 9 Noroeste 0 -- -- 38
2020-07-07 23:00:00 26 5 Noroeste 9 Oeste 0 -- -- 37
2020-07-07 22:00:00 29.1 0 Calma 9 Oeste 0 -- -- 34
2020-07-07 21:00:00 30.9 7 Oeste 27 Oeste 0 -- -- 31
2020-07-07 20:00:00 31.2 12 Sudoeste 23 Sudoeste 0 -- -- 34
2020-07-07 19:00:00 32.6 12 Sudoeste 27 Sudoeste 0 -- -- 28
2020-07-07 18:00:00 31.5 14 Sudoeste 26 Sudoeste 0 -- -- 30
2020-07-07 17:00:00 32.5 14 Sudoeste 24 Sudoeste 0 -- -- 30
2020-07-07 16:00:00 32.2 10 Sudoeste 15 Sudoeste 0 -- -- 26
2020-07-07 15:00:00 32.4 9 Sudoeste 17 Sudoeste 0 -- -- 25
2020-07-07 14:00:00 31.8 10 Sudoeste 15 Sudoeste 0 -- -- 28
2020-07-07 13:00:00 31.5 7 Sur 13 Sudoeste 0 -- -- 34
2020-07-07 12:00:00 30.5 8 Sur 12 Sur 0 -- -- 37
2020-07-07 11:00:00 29.4 6 Sur 9 Sur 0 -- -- 40
2020-07-07 10:00:00 27.6 4 Norte 10 Norte 0 -- -- 37
2020-07-07 09:00:00 22.6 3 Nordeste 6 Nordeste 0 -- -- 51
2020-07-07 08:00:00 17.7 4 Nordeste 7 Nordeste 0 -- -- 62
2020-07-07 07:00:00 17.4 3 Nordeste 7 Nordeste 0 -- -- 61
2020-07-07 06:00:00 17.8 5 Norte 6 Norte 0 -- -- 60
2020-07-07 05:00:00 18 0 Calma 4 Norte 0 -- -- 61
2020-07-07 04:00:00 18.9 0 Calma 5 Nordeste 0 -- -- 59
2020-07-07 03:00:00 20 4 Noroeste 6 Noroeste 0 -- -- 57
2020-07-07 02:00:00 22 3 Nordeste 6 Este 0 -- -- 53
2020-07-07 01:00:00 23.3 3 Norte 12 Norte 0 -- -- 51
2020-07-07 00:00:00 22.9 3 Noroeste 6 Noroeste 0 -- -- 63
2020-07-06 23:00:00 24.7 2 Noroeste 13 Oeste 0 -- -- 59
2020-07-06 22:00:00 26 6 Sudoeste 17 Oeste 0 -- -- 57
2020-07-06 21:00:00 28.3 9 Oeste 20 Sudoeste 0 -- -- 45
2020-07-06 20:00:00 28.8 14 Oeste 27 Sudoeste 0 -- -- 43
2020-07-06 19:00:00 28.4 16 Sudoeste 31 Sudoeste 0 -- -- 47
2020-07-06 18:00:00 28.7 17 Sudoeste 27 Oeste 0 -- -- 44
2020-07-06 17:00:00 28.5 15 Sudoeste 27 Sudoeste 0 -- -- 51
2020-07-06 16:00:00 28.6 17 Sudoeste 25 Sudoeste 0 -- -- 51
2020-07-06 15:00:00 29.4 15 Sudoeste 23 Sudoeste 0 -- -- 45
2020-07-06 14:00:00 29.5 13 Sudoeste 21 Sudoeste 0 -- -- 48
2020-07-06 13:00:00 29.5 12 Sudoeste 16 Sudoeste 0 -- -- 45
2020-07-06 12:00:00 29.1 12 Sudoeste 19 Sudoeste 0 -- -- 44
2020-07-06 11:00:00 30.1 7 Oeste 17 Oeste 0 -- -- 37
2020-07-06 10:00:00 28.3 6 Noroeste 13 Noroeste 0 -- -- 40
2020-07-06 09:00:00 24.4 3 Norte 8 Norte 0 -- -- 55
2020-07-06 08:00:00 19.3 5 Norte 8 Noroeste 0 -- -- 73
2020-07-06 07:00:00 20.3 4 Noroeste 12 Noroeste 0 -- -- 72
2020-07-06 06:00:00 19.8 6 Noroeste 12 Noroeste 0 -- -- 79
2020-07-06 05:00:00 20 4 Oeste 13 Oeste 0 -- -- 83
2020-07-06 04:00:00 20 0 Calma 7 Sudoeste 0 -- -- 73
2020-07-06 03:00:00 21.5 4 Sudoeste 8 Sudoeste 0 -- -- 72
2020-07-06 02:00:00 21.4 3 Sudoeste 5 Sudoeste 0 -- -- 69
2020-07-06 01:00:00 23 3 Norte 8 Norte 0 -- -- 61
2020-07-06 00:00:00 24 4 Norte 13 Oeste 0 -- -- 61
2020-07-05 23:00:00 26.2 7 Noroeste 16 Oeste 0 -- -- 57
2020-07-05 22:00:00 25.9 7 Oeste 21 Sudoeste 0 -- -- 61
2020-07-05 21:00:00 27.8 10 Oeste 24 Oeste 0 -- -- 54
2020-07-05 20:00:00 28.4 11 Sudoeste 20 Oeste 0 -- -- 54
2020-07-05 19:00:00 30.2 13 Sudoeste 27 Sudoeste 0 -- -- 47
2020-07-05 18:00:00 30 18 Sudoeste 29 Oeste 0 -- -- 47
2020-07-05 17:00:00 31.1 15 Sudoeste 26 Sudoeste 0 -- -- 44
2020-07-05 16:00:00 31.2 13 Sudoeste 22 Sudoeste 0 -- -- 42
2020-07-05 15:00:00 30.2 12 Sudoeste 21 Sudoeste 0 -- -- 46
2020-07-05 14:00:00 30.8 13 Sudoeste 20 Sudoeste 0 -- -- 46
2020-07-05 13:00:00 33.7 10 Sudeste 18 Sudeste 0 -- -- 35
2020-07-05 12:00:00 31.1 9 Sudeste 15 Sudeste 0 -- -- 41
2020-07-05 11:00:00 29.2 6 Sudoeste 10 Sudoeste 0 -- -- 46
2020-07-05 10:00:00 26.9 4 Norte 10 Norte 0 -- -- 48
2020-07-05 09:00:00 22 5 Norte 9 Norte 0 -- -- 60
2020-07-05 08:00:00 17.1 5 Norte 8 Norte 0 -- -- 78
2020-07-05 07:00:00 16.2 6 Norte 8 Norte 0 -- -- 84
2020-07-05 06:00:00 15.5 6 Norte 8 Norte 0 -- -- 88
2020-07-05 05:00:00 15.9 0 Calma 5 Norte 0 -- -- 86
2020-07-05 04:00:00 16.9 0 Calma 5 Noroeste 0 -- -- 84
2020-07-05 03:00:00 17.6 3 Norte 4 Norte 0 -- -- 82
2020-07-05 02:00:00 19.7 0 Calma 6 Oeste 0 -- -- 78
2020-07-05 01:00:00 21.8 5 Sudoeste 10 Noroeste 0 -- -- 70
2020-07-05 00:00:00 22.7 4 Sudoeste 12 Oeste 0 -- -- 72
2020-07-04 23:00:00 23.1 5 Sur 16 Sudoeste 0 -- -- 78
2020-07-04 22:00:00 24.9 9 Oeste 19 Noroeste 0 -- -- 65
2020-07-04 21:00:00 26.8 12 Oeste 22 Sudoeste 0 -- -- 62
2020-07-04 20:00:00 28 16 Oeste 27 Oeste 0 -- -- 56
2020-07-04 19:00:00 28.9 13 Sudoeste 24 Sudoeste 0 -- -- 56
2020-07-04 18:00:00 29.4 13 Sudoeste 24 Oeste 0 -- -- 51
2020-07-04 17:00:00 29.3 15 Oeste 23 Oeste 0 -- -- 53
2020-07-04 16:00:00 28.3 13 Sudoeste 21 Sudoeste 0 -- -- 51
2020-07-04 15:00:00 26.9 10 Sudoeste 16 Sudoeste 0 -- -- 58
2020-07-04 14:00:00 26.2 9 Sur 14 Sudoeste 0 -- -- 64
2020-07-04 13:00:00 26.6 8 Sudeste 18 Sudeste 0 -- -- 60
2020-07-04 12:00:00 26.5 9 Sudeste 17 Sudeste 0 -- -- 52
2020-07-04 11:00:00 26.7 7 Sudeste 13 Sudeste 0 -- -- 48
2020-07-04 10:00:00 24.1 8 Nordeste 18 Nordeste 0 -- -- 52
2020-07-04 09:00:00 20.6 6 Norte 12 Norte 0 -- -- 61
2020-07-04 08:00:00 16.6 5 Norte 12 Norte 0 -- -- 73
2020-07-04 07:00:00 15.1 4 Norte 8 Norte 0 -- -- 74
2020-07-04 06:00:00 16.8 3 Norte 6 Norte 0 -- -- 69
2020-07-04 05:00:00 19.9 5 Nordeste 26 Noroeste 0 -- -- 60
2020-07-04 04:00:00 20.7 12 Noroeste 24 Noroeste 0 -- -- 56
2020-07-04 03:00:00 21.8 10 Noroeste 23 Oeste 0 -- -- 51
2020-07-04 02:00:00 23 11 Noroeste 23 Noroeste 0 -- -- 47
2020-07-04 01:00:00 22.8 10 Noroeste 19 Norte 0 -- -- 48
2020-07-04 00:00:00 19.3 6 Oeste 9 Oeste 0 -- -- 65
2020-07-03 23:00:00 22.1 3 Sur 10 Sudoeste 0 -- -- 67
2020-07-03 22:00:00 23.9 7 Oeste 23 Sudoeste 0 -- -- 54
2020-07-03 21:00:00 25.3 14 Oeste 31 Oeste 0 -- -- 52
2020-07-03 20:00:00 25.1 13 Sudoeste 27 Oeste 0 -- -- 56
2020-07-03 19:00:00 24.5 17 Sudoeste 28 Sudoeste 0 -- -- 58
2020-07-03 18:00:00 24.4 17 Sudoeste 27 Sudoeste 0 -- -- 57
2020-07-03 17:00:00 25.3 15 Sudoeste 32 Oeste 0 -- -- 51
2020-07-03 16:00:00 23.9 22 Sudoeste 34 Sudoeste 0 -- -- 57
2020-07-03 15:00:00 23.6 21 Sudoeste 35 Oeste 0 -- -- 57
2020-07-03 14:00:00 29.9 15 Sudoeste 33 Oeste 0 -- -- 40
2020-07-03 13:00:00 28.8 8 Norte 20 Noroeste 0 -- -- 28
2020-07-03 12:00:00 25.9 7 Noroeste 21 Oeste 0 -- -- 37
2020-07-03 11:00:00 22.7 9 Noroeste 24 Noroeste 0 -- -- 45
2020-07-03 10:00:00 19.8 14 Norte 29 Norte 0 -- -- 52
2020-07-03 09:00:00 17.5 14 Noroeste 29 Norte 0 -- -- 60
2020-07-03 08:00:00 15.8 11 Noroeste 27 Noroeste 0 -- -- 64
2020-07-03 07:00:00 15.9 11 Noroeste 22 Noroeste 0 -- -- 62
2020-07-03 06:00:00 16.9 10 Noroeste 31 Noroeste 0 -- -- 59
2020-07-03 05:00:00 17.8 16 Noroeste 32 Norte 0 -- -- 58
2020-07-03 04:00:00 18.9 10 Noroeste 23 Noroeste 0 -- -- 53
2020-07-03 03:00:00 20.4 11 Norte 29 Noroeste 0 -- -- 48
2020-07-03 02:00:00 21.8 13 Noroeste 32 Norte 0 -- -- 45
2020-07-03 01:00:00 23.5 18 Noroeste 31 Noroeste 0 -- -- 41
2020-07-03 00:00:00 25.4 13 Noroeste 30 Noroeste 0 -- -- 39
2020-07-02 23:00:00 27.1 13 Noroeste 27 Noroeste 0 -- -- 37
2020-07-02 22:00:00 28.9 9 Noroeste 27 Noroeste 0 -- -- 34
2020-07-02 21:00:00 30.7 13 Noroeste 31 Noroeste 0 -- -- 33
2020-07-02 20:00:00 27.5 13 Sudoeste 32 Oeste 0 -- -- 59
2020-07-02 19:00:00 27 18 Sudoeste 31 Sudoeste 0 -- -- 61
2020-07-02 18:00:00 27.2 18 Sudoeste 34 Sudoeste 0 -- -- 61
2020-07-02 17:00:00 27 17 Sudoeste 33 Sudoeste 0 -- -- 62
2020-07-02 16:00:00 26.9 21 Sudoeste 36 Oeste 0 -- -- 57
2020-07-02 15:00:00 34.4 14 Oeste 36 Oeste 0 -- -- 28
2020-07-02 14:00:00 33 13 Oeste 35 Noroeste 0 -- -- 30
2020-07-02 13:00:00 31.3 15 Noroeste 31 Norte 0 -- -- 32
2020-07-02 12:00:00 29.1 13 Noroeste 28 Noroeste 0 -- -- 40
2020-07-02 11:00:00 26.8 10 Noroeste 28 Noroeste 0 -- -- 48
2020-07-02 10:00:00 24.4 11 Noroeste 26 Noroeste 0 -- -- 55
2020-07-02 09:00:00 21.8 13 Norte 28 Noroeste 0 -- -- 66
2020-07-02 08:00:00 19.8 12 Noroeste 28 Noroeste 0 -- -- 74
2020-07-02 07:00:00 19.8 13 Noroeste 25 Noroeste 0 -- -- 74
2020-07-02 06:00:00 20.7 13 Noroeste 28 Noroeste 0 -- -- 72
2020-07-02 05:00:00 21.6 13 Noroeste 26 Norte 0 -- -- 69
2020-07-02 04:00:00 22.6 12 Noroeste 24 Noroeste 0 -- -- 65
2020-07-02 03:00:00 22.2 8 Noroeste 14 Noroeste 0 -- -- 66
2020-07-02 02:00:00 20.3 5 Noroeste 9 Noroeste 0 -- -- 75
2020-07-02 01:00:00 19.4 4 Noroeste 8 Noroeste 0 -- -- 84
2020-07-02 00:00:00 21.6 0 Calma 8 Sudoeste 0 -- -- 79
2020-07-01 23:00:00 23.6 6 Sudoeste 12 Sudoeste 0 -- -- 78
2020-07-01 22:00:00 24.8 7 Sudoeste 18 Oeste 0 -- -- 70
2020-07-01 21:00:00 25.3 10 Oeste 24 Sudoeste 0 -- -- 68
2020-07-01 20:00:00 24.9 14 Sudoeste 28 Sudoeste 0 -- -- 65
2020-07-01 19:00:00 24.4 17 Sudoeste 32 Sudoeste 0 -- -- 72
2020-07-01 18:00:00 25.3 18 Sudoeste 28 Sudoeste 0 -- -- 66
2020-07-01 17:00:00 25.1 16 Sudoeste 27 Sudoeste 0 -- -- 73
2020-07-01 16:00:00 25.1 17 Sudoeste 27 Sudoeste 0 -- -- 74
2020-07-01 15:00:00 24.9 13 Sudeste 25 Sudeste 0 -- -- 73
2020-07-01 14:00:00 24.9 15 Sudeste 24 Sudeste 0 -- -- 73
2020-07-01 13:00:00 25.3 12 Sudeste 19 Sudeste 0 -- -- 70
2020-07-01 12:00:00 24.3 11 Sur 20 Sudeste 0 -- -- 74
2020-07-01 11:00:00 24.6 4 Sur 15 Nordeste 0 -- -- 72
2020-07-01 10:00:00 23.1 6 Nordeste 13 Norte 0 -- -- 72
2020-07-01 09:00:00 20.4 6 Norte 12 Norte 0 -- -- 80
2020-07-01 08:00:00 16.3 4 Norte 8 Noroeste 0 -- -- 94
2020-07-01 07:00:00 15.5 4 Noroeste 9 Norte 0 -- -- 93
2020-07-01 06:00:00 15.6 5 Norte 7 Norte 0 -- -- 94
2020-07-01 05:00:00 15.5 4 Norte 8 Norte 0 -- -- 93
2020-07-01 04:00:00 16.1 4 Norte 5 Norte 0 -- -- 92
2020-07-01 03:00:00 17.3 3 Norte 4 Norte 0 -- -- 91
2020-07-01 02:00:00 18.8 3 Nordeste 5 Nordeste 0 -- -- 89
2020-07-01 01:00:00 21.9 4 Sudoeste 12 Sudoeste 0 -- -- 86
2020-07-01 00:00:00 22.4 6 Sur 13 Sudeste 0 -- -- 83
2020-06-30 23:00:00 22.9 5 Sur 15 Sur 0 -- -- 89
2020-06-30 22:00:00 23.5 4 Sur 12 Sudoeste 0 -- -- 86
2020-06-30 21:00:00 24.8 7 Sudoeste 21 Sudoeste 0 -- -- 81
2020-06-30 20:00:00 26.5 13 Sudoeste 19 Sudoeste 0 -- -- 70
2020-06-30 19:00:00 28 10 Sudoeste 17 Sudoeste 0 -- -- 54
2020-06-30 18:00:00 28.2 8 Sur 13 Sudoeste 0 -- -- 54
2020-06-30 17:00:00 28.3 7 Sudoeste 15 Sudoeste 0 -- -- 52
2020-06-30 16:00:00 28.2 8 Sudoeste 16 Sudoeste 0 -- -- 58
2020-06-30 15:00:00 27 8 Sur 15 Sudoeste 0 -- -- 65
2020-06-30 14:00:00 26.2 8 Sur 17 Sur 0 -- -- 67
2020-06-30 13:00:00 25.9 9 Sur 18 Sur 0 -- -- 68
2020-06-30 12:00:00 25.6 10 Sudoeste 19 Sudoeste 0 -- -- 64
2020-06-30 11:00:00 26.1 7 Sur 17 Sudeste 0 -- -- 54
2020-06-30 10:00:00 26.3 8 Sudeste 13 Sudeste 0 -- -- 49
2020-06-30 09:00:00 23.2 0 Calma 6 Noroeste 0 -- -- 68
2020-06-30 08:00:00 18.3 4 Norte 7 Norte 0 -- -- 83
2020-06-30 07:00:00 19.3 3 Norte 14 Noroeste 0 -- -- 79
2020-06-30 06:00:00 19.6 7 Norte 11 Noroeste 0 -- -- 79
2020-06-30 05:00:00 19.3 6 Noroeste 10 Noroeste 0 -- -- 84
2020-06-30 04:00:00 20.6 0 Calma 8 Sudeste 0 -- -- 80
2020-06-30 03:00:00 22.4 4 Sudeste 15 Sudeste 0 -- -- 85
2020-06-30 02:00:00 20.8 3 Sudeste 6 Oeste 0 -- -- 72
2020-06-30 01:00:00 22.3 3 Sudoeste 6 Noroeste 0 -- -- 69
2020-06-30 00:00:00 23.3 3 Noroeste 12 Oeste 0 -- -- 66
2020-06-29 23:00:00 24.8 6 Oeste 18 Oeste 0 -- -- 62
2020-06-29 22:00:00 26.1 10 Oeste 17 Oeste 0 -- -- 59
2020-06-29 21:00:00 27 10 Oeste 20 Oeste 0 -- -- 57
2020-06-29 20:00:00 27.4 12 Sudoeste 22 Sudoeste 0 -- -- 55
2020-06-29 19:00:00 27.5 13 Oeste 23 Oeste 0 -- -- 56
2020-06-29 18:00:00 26.3 14 Sudoeste 24 Sudoeste 0 -- -- 64
2020-06-29 17:00:00 26.4 17 Sudoeste 23 Sudoeste 0 -- -- 64
2020-06-29 16:00:00 26.8 12 Sudoeste 19 Sur 0 -- -- 65
2020-06-29 15:00:00 27.6 12 Sur 23 Sudeste 0 -- -- 62
2020-06-29 14:00:00 29 12 Sur 22 Sudeste 0 -- -- 52
2020-06-29 13:00:00 29.9 11 Sur 19 Sur 0 -- -- 48
2020-06-29 12:00:00 29.8 9 Sur 18 Sudeste 0 -- -- 49
2020-06-29 11:00:00 29.7 6 Norte 22 Norte 0 -- -- 48
2020-06-29 10:00:00 26.1 12 Noroeste 22 Noroeste 0 -- -- 60
2020-06-29 09:00:00 23 12 Noroeste 23 Norte 0 -- -- 69
2020-06-29 08:00:00 21 5 Norte 14 Noroeste 0 -- -- 76
2020-06-29 07:00:00 21.1 6 Norte 24 Norte 0 -- -- 75
2020-06-29 06:00:00 22.1 13 Norte 27 Noroeste 0 -- -- 71
2020-06-29 05:00:00 23.4 14 Noroeste 27 Noroeste 0 -- -- 65
2020-06-29 04:00:00 24.5 13 Noroeste 27 Noroeste 0 -- -- 60
2020-06-29 03:00:00 25.6 13 Noroeste 27 Noroeste 0 -- -- 56
2020-06-29 02:00:00 25.9 10 Noroeste 19 Noroeste 0 -- -- 56
2020-06-29 01:00:00 24.9 8 Noroeste 15 Noroeste 0 -- -- 59
2020-06-29 00:00:00 26 6 Oeste 16 Oeste 0 -- -- 59
2020-06-28 23:00:00 24.7 6 Sudoeste 14 Oeste 0 -- -- 73
2020-06-28 22:00:00 25.8 9 Oeste 19 Sudoeste 0 -- -- 61
2020-06-28 21:00:00 27.1 10 Sudoeste 27 Sudoeste 0 -- -- 59
2020-06-28 20:00:00 28.3 14 Oeste 33 Oeste 0 -- -- 52
2020-06-28 19:00:00 28 16 Sudoeste 33 Sudoeste 0 -- -- 52
2020-06-28 18:00:00 27.7 16 Oeste 33 Sudoeste 0 -- -- 54
2020-06-28 17:00:00 26.3 19 Sudoeste 31 Sudoeste 0 -- -- 60
2020-06-28 16:00:00 26.6 18 Sudoeste 27 Sudoeste 0 -- -- 62
2020-06-28 15:00:00 30.1 15 Sudoeste 23 Sudoeste 0 -- -- 53
2020-06-28 14:00:00 30.6 15 Sudoeste 26 Oeste 0 -- -- 46
2020-06-28 13:00:00 31.8 10 Sudoeste 23 Oeste 0 -- -- 41
2020-06-28 12:00:00 29.7 6 Norte 20 Noroeste 0 -- -- 48
2020-06-28 11:00:00 26.8 10 Norte 22 Noroeste 0 -- -- 57
2020-06-28 10:00:00 24.3 8 Noroeste 30 Noroeste 0 -- -- 66
2020-06-28 09:00:00 21.8 13 Noroeste 32 Norte 0 -- -- 74
2020-06-28 08:00:00 20.1 14 Noroeste 29 Noroeste 0 -- -- 81
2020-06-28 07:00:00 20.2 13 Noroeste 30 Noroeste 0 -- -- 80
2020-06-28 06:00:00 21 11 Noroeste 27 Noroeste 0 -- -- 76
2020-06-28 05:00:00 21.8 13 Noroeste 28 Noroeste 0 -- -- 73
2020-06-28 04:00:00 22.5 12 Noroeste 25 Noroeste 0 -- -- 69
2020-06-28 03:00:00 23 12 Noroeste 26 Noroeste 0 -- -- 66
2020-06-28 02:00:00 23.9 12 Noroeste 26 Noroeste 0 -- -- 63
2020-06-28 01:00:00 24.6 12 Noroeste 24 Noroeste 0 -- -- 61
2020-06-28 00:00:00 23.5 8 Noroeste 16 Oeste 0 -- -- 64
2020-06-27 23:00:00 22.3 5 Noroeste 16 Oeste 0 -- -- 75
2020-06-27 22:00:00 23.4 11 Oeste 25 Sudoeste 0 -- -- 72
2020-06-27 21:00:00 24.2 14 Oeste 27 Sudoeste 0 -- -- 67
2020-06-27 20:00:00 24.2 16 Sudoeste 27 Oeste 0 -- -- 67
2020-06-27 19:00:00 24.2 17 Sudoeste 33 Sudoeste 0 -- -- 69
2020-06-27 18:00:00 24.6 21 Sudoeste 35 Sudoeste 0 -- -- 67
2020-06-27 17:00:00 25.1 20 Sudoeste 35 Sudoeste 0 -- -- 62
2020-06-27 16:00:00 24.6 23 Sudoeste 43 Sudoeste 0 -- -- 65
2020-06-27 15:00:00 26.5 21 Sudoeste 32 Oeste 0 -- -- 63
2020-06-27 14:00:00 30.6 10 Noroeste 24 Noroeste 0 -- -- 40
2020-06-27 13:00:00 28.6 10 Norte 25 Norte 0 -- -- 46
2020-06-27 12:00:00 26.4 13 Noroeste 27 Noroeste 0 -- -- 52
2020-06-27 11:00:00 24.3 13 Norte 29 Noroeste 0 -- -- 59
2020-06-27 10:00:00 21.9 14 Noroeste 30 Norte 0 -- -- 68
2020-06-27 09:00:00 20.2 12 Norte 28 Norte 0 -- -- 74
2020-06-27 08:00:00 18.1 12 Noroeste 23 Noroeste 0 -- -- 82
2020-06-27 07:00:00 17.8 12 Noroeste 24 Norte 0 -- -- 82
2020-06-27 06:00:00 18.1 13 Noroeste 27 Noroeste 0 -- -- 80
2020-06-27 05:00:00 18.6 13 Noroeste 31 Noroeste 0 -- -- 77
2020-06-27 04:00:00 19 13 Noroeste 28 Noroeste 0 -- -- 74
2020-06-27 03:00:00 19.5 13 Noroeste 26 Noroeste 0 -- -- 70
2020-06-27 02:00:00 20.2 13 Noroeste 28 Noroeste 0 -- -- 66
2020-06-27 01:00:00 21.2 12 Noroeste 33 Noroeste 0 -- -- 59
2020-06-27 00:00:00 22.4 15 Noroeste 31 Noroeste 0 -- -- 53
2020-06-26 23:00:00 20.8 6 Noroeste 14 Sudoeste 0 -- -- 73
2020-06-26 22:00:00 21.9 9 Oeste 26 Oeste 0 -- -- 73
2020-06-26 21:00:00 23.8 13 Sudoeste 27 Oeste 0 -- -- 64
2020-06-26 20:00:00 24.2 14 Sudoeste 28 Oeste 0 -- -- 62
2020-06-26 19:00:00 23.8 18 Sudoeste 33 Sudoeste 0 -- -- 65
2020-06-26 18:00:00 23 20 Sudoeste 32 Sudoeste 0 -- -- 65
2020-06-26 17:00:00 23.2 21 Sudoeste 36 Sudoeste 0 -- -- 64
2020-06-26 16:00:00 23.6 22 Sudoeste 35 Sudoeste 0 -- -- 65
2020-06-26 15:00:00 24.5 19 Sudoeste 32 Sudoeste 0 -- -- 60
2020-06-26 14:00:00 27.6 17 Sudoeste 27 Sudoeste 0 -- -- 44
2020-06-26 13:00:00 27.4 5 Noroeste 20 Norte 0 -- -- 39
2020-06-26 12:00:00 24.4 8 Norte 23 Nordeste 0 -- -- 49
2020-06-26 11:00:00 22.4 13 Norte 27 Norte 0 -- -- 55
2020-06-26 10:00:00 20.2 12 Norte 30 Noroeste 0 -- -- 65
2020-06-26 09:00:00 18 12 Noroeste 28 Norte 0 -- -- 76
2020-06-26 08:00:00 15.8 9 Norte 20 Noroeste 0 -- -- 85
2020-06-26 07:00:00 15.6 10 Noroeste 21 Noroeste 0 -- -- 86
2020-06-26 06:00:00 15.4 4 Noroeste 15 Noroeste 0 -- -- 87
2020-06-26 05:00:00 15.3 6 Norte 12 Norte 0 -- -- 89
2020-06-26 04:00:00 14.7 4 Norte 6 Norte 0 -- -- 89
2020-06-26 03:00:00 16.5 0 Calma 5 Noroeste 0 -- -- 88
2020-06-26 02:00:00 16.5 2 Noroeste 6 Nordeste 0 -- -- 88
2020-06-26 01:00:00 17.5 0 Calma 4 Norte 0 -- -- 86
2020-06-26 00:00:00 19.7 0 Calma 9 Sur 0 -- -- 81
2020-06-25 23:00:00 21.5 3 Sur 10 Sudoeste 0 -- -- 79
2020-06-25 22:00:00 21.9 6 Sudoeste 13 Sudoeste 0 -- -- 79
2020-06-25 21:00:00 22.7 8 Sudoeste 17 Sudoeste 0 -- -- 76
2020-06-25 20:00:00 23.4 11 Sudoeste 22 Sudoeste 0 -- -- 79
2020-06-25 19:00:00 24.3 14 Sudoeste 24 Sudoeste 0 -- -- 71
2020-06-25 18:00:00 25.1 13 Sudoeste 23 Sudoeste 0 -- -- 68
2020-06-25 17:00:00 25.2 14 Sur 21 Sur 0 -- -- 68
2020-06-25 16:00:00 25.2 12 Sur 23 Sur 0 -- -- 66
2020-06-25 15:00:00 25.2 11 Sur 21 Sudeste 0 -- -- 67
2020-06-25 14:00:00 24.4 11 Sur 19 Sur 0 -- -- 70
2020-06-25 13:00:00 23.6 10 Sudeste 17 Sudeste 0 -- -- 78
2020-06-25 12:00:00 23.4 11 Sudeste 18 Sudeste 0 -- -- 78
2020-06-25 11:00:00 24 11 Sudeste 18 Sudeste 0 -- -- 74
2020-06-25 10:00:00 23.1 8 Sur 17 Sudeste 0 -- -- 80
2020-06-25 09:00:00 22.1 12 Sudeste 22 Sudeste 0 -- -- 85
2020-06-25 08:00:00 18.1 5 Nordeste 10 Este 0 -- -- 94
2020-06-25 07:00:00 16.7 5 Este 9 Sudeste 0 -- -- 92
2020-06-25 06:00:00 16.2 4 Este 7 Este 0 -- -- 93
2020-06-25 05:00:00 15.8 0 Calma 5 Nordeste 0 -- -- 92
2020-06-25 04:00:00 16.6 0 Calma 6 Nordeste 0 -- -- 91
2020-06-25 03:00:00 16.8 5 Nordeste 7 Nordeste 0 -- -- 92
2020-06-25 02:00:00 18 2 Noroeste 4 Sudoeste 0 -- -- 88
2020-06-25 01:00:00 19 4 Norte 5 Nordeste 0 -- -- 89
2020-06-25 00:00:00 20.7 0 Calma 9 Sudoeste 0 -- -- 87
2020-06-24 23:00:00 21.9 4 Sudoeste 8 Sudoeste 0 -- -- 86
2020-06-24 22:00:00 23.1 4 Sudoeste 8 Sudoeste 0 -- -- 82
2020-06-24 21:00:00 24.5 2 Sudoeste 14 Sudoeste 0 -- -- 73
2020-06-24 20:00:00 24.6 11 Sudoeste 15 Sudoeste 0 -- -- 71
2020-06-24 19:00:00 25.4 11 Sudoeste 17 Sudoeste 0 -- -- 68
2020-06-24 18:00:00 25.4 11 Sudoeste 18 Oeste 0 -- -- 66
2020-06-24 17:00:00 25.5 12 Sudoeste 21 Sudoeste 0 -- -- 66
2020-06-24 16:00:00 25.7 12 Sudoeste 18 Sudoeste 0 -- -- 64
2020-06-24 15:00:00 25.6 9 Sur 18 Sur 0 -- -- 66
2020-06-24 14:00:00 25.1 10 Sur 19 Sur 0 -- -- 66
2020-06-24 13:00:00 25.3 7 Sur 19 Sudoeste 0 -- -- 65
2020-06-24 12:00:00 24.6 9 Sur 17 Sudoeste 0 -- -- 68
2020-06-24 11:00:00 24.2 6 Sur 14 Sur 0 -- -- 68
2020-06-24 10:00:00 23.7 5 Sur 9 Sudeste 0 -- -- 70
2020-06-24 09:00:00 22.1 0 Calma 6 Norte 0 -- -- 72
2020-06-24 08:00:00 16.6 4 Norte 6 Norte 0 -- -- 82
2020-06-24 07:00:00 16.6 3 Oeste 8 Oeste 0 -- -- 79
2020-06-24 06:00:00 18.2 4 Sudoeste 10 Sur 0 -- -- 75
2020-06-24 05:00:00 18.2 5 Nordeste 9 Norte 0 -- -- 73
2020-06-24 04:00:00 18.4 6 Nordeste 9 Norte 0 -- -- 72
2020-06-24 03:00:00 18.6 0 Calma 8 Norte 0 -- -- 71
2020-06-24 02:00:00 20.3 0 Calma 8 Noroeste 0 -- -- 67
2020-06-24 01:00:00 21.8 2 Sudoeste 10 Sudoeste 0 -- -- 63
2020-06-24 00:00:00 22.6 5 Oeste 11 Oeste 0 -- -- 63
2020-06-23 23:00:00 23.5 4 Noroeste 11 Oeste 0 -- -- 61
2020-06-23 22:00:00 24.4 7 Oeste 21 Oeste 0 -- -- 60
2020-06-23 21:00:00 25.6 12 Oeste 24 Sudoeste 0 -- -- 58
2020-06-23 20:00:00 26.2 15 Oeste 27 Oeste 0 -- -- 57
2020-06-23 19:00:00 26.5 15 Oeste 24 Oeste 0 -- -- 56
2020-06-23 18:00:00 27 15 Oeste 26 Sudoeste 0 -- -- 56
2020-06-23 17:00:00 26.4 15 Sudoeste 24 Sudoeste 0 -- -- 59
2020-06-23 16:00:00 25.8 12 Sudoeste 24 Sudoeste 0 -- -- 61
2020-06-23 15:00:00 26.7 14 Sudoeste 26 Sudoeste 0 -- -- 49
2020-06-23 14:00:00 26.9 17 Sudoeste 26 Sudoeste 0 -- -- 48
2020-06-23 13:00:00 29.3 13 Sudoeste 20 Sudoeste 0 -- -- 35
2020-06-23 12:00:00 29.7 9 Sudoeste 13 Sudoeste 0 -- -- 33
2020-06-23 11:00:00 29.4 6 Sudoeste 11 Nordeste 0 -- -- 34
2020-06-23 10:00:00 27.9 6 Nordeste 13 Este 0 -- -- 38
2020-06-23 09:00:00 23.4 5 Norte 10 Noroeste 0 -- -- 50
2020-06-23 08:00:00 18.2 5 Norte 12 Nordeste 0 -- -- 63
2020-06-23 07:00:00 16.7 6 Norte 9 Norte 0 -- -- 65
2020-06-23 06:00:00 16.5 0 Calma -- -- 0 -- -- 65
2020-06-23 05:00:00 16.8 0 Calma -- -- 0 -- -- 64
2020-06-23 04:00:00 18.2 0 Calma 12 Sudoeste 0 -- -- 59
2020-06-23 03:00:00 19.7 0 Calma -- -- 0 -- -- 55
2020-06-23 02:00:00 21.3 0 Calma 6 Oeste 0 -- -- 50
2020-06-23 01:00:00 23.2 0 Calma 10 Sur 0 -- -- 44
2020-06-23 00:00:00 26.7 6 Sudoeste 15 Sudoeste 0 -- -- 38
2020-06-22 23:00:00 25.6 5 Noroeste 11 Oeste 0 -- -- 36
2020-06-22 22:00:00 29.3 9 Oeste 17 Oeste 0 -- -- 30
2020-06-22 21:00:00 31.5 9 Oeste 19 Oeste 0 -- -- 28
2020-06-22 20:00:00 32.4 11 Oeste 20 Oeste 0 -- -- 27
2020-06-22 19:00:00 32.9 13 Sudoeste 20 Sudoeste 0 -- -- 27
2020-06-22 18:00:00 33.1 13 Oeste 21 Oeste 0 -- -- 27
2020-06-22 17:00:00 31.7 12 Sudoeste 22 Sudoeste 0 -- -- 30
2020-06-22 16:00:00 30.9 11 Sudoeste 22 Sudoeste 0 -- -- 35
2020-06-22 15:00:00 31.5 14 Sudoeste 21 Sudoeste 0 -- -- 34
2020-06-22 14:00:00 31.9 10 Sudoeste 16 Sudoeste 0 -- -- 32
2020-06-22 13:00:00 31.8 8 Sur 17 Este 0 -- -- 37
2020-06-22 12:00:00 34.1 9 Este 21 Nordeste 0 -- -- 26
2020-06-22 11:00:00 30.6 7 Nordeste 17 Nordeste 0 -- -- 33
2020-06-22 10:00:00 26 6 Norte 17 Norte 0 -- -- 52
2020-06-22 09:00:00 22.2 8 Norte 19 Noroeste 0 -- -- 64
2020-06-22 08:00:00 18.9 9 Noroeste 16 Noroeste 0 -- -- 76
2020-06-22 07:00:00 18.3 6 Norte 10 Noroeste 0 -- -- 77
2020-06-22 06:00:00 20.2 6 Norte 19 Norte 0 -- -- 70
2020-06-22 05:00:00 21.6 12 Noroeste 26 Noroeste 0 -- -- 65
2020-06-22 04:00:00 23.1 12 Noroeste 23 Noroeste 0 -- -- 59
2020-06-22 03:00:00 24.4 11 Noroeste 24 Noroeste 0 -- -- 53
2020-06-22 02:00:00 25.6 11 Noroeste 25 Norte 0 -- -- 45
2020-06-22 01:00:00 26.2 11 Noroeste 20 Norte 0 -- -- 38
2020-06-22 00:00:00 26.6 9 Noroeste 20 Noroeste 0 -- -- 36
2020-06-21 23:00:00 22.9 6 Noroeste 11 Noroeste 0 -- -- 43
2020-06-21 22:00:00 26.3 3 Oeste 19 Sudoeste 0 -- -- 41
2020-06-21 21:00:00 28.2 12 Oeste 26 Oeste 0 -- -- 36
2020-06-21 20:00:00 27.8 15 Oeste 34 Sudoeste 0 -- -- 38
2020-06-21 19:00:00 26.5 20 Oeste 36 Sudoeste 0 -- -- 45
2020-06-21 18:00:00 25.6 17 Sudoeste 34 Sudoeste 0 -- -- 50
2020-06-21 17:00:00 26.9 15 Sudoeste 31 Sudoeste 0 -- -- 44
2020-06-21 16:00:00 35.9 13 Oeste 27 Oeste 0 -- -- 19
2020-06-21 15:00:00 34.7 11 Noroeste 24 Norte 0 -- -- 21
2020-06-21 14:00:00 32.9 11 Noroeste 31 Oeste 0 -- -- 22
2020-06-21 13:00:00 30.7 12 Noroeste 26 Norte 0 -- -- 29
2020-06-21 12:00:00 28.3 10 Noroeste 27 Norte 0 -- -- 34
2020-06-21 11:00:00 25.3 11 Noroeste 28 Norte 0 -- -- 44
2020-06-21 10:00:00 21.9 13 Noroeste 30 Noroeste 0 -- -- 53
2020-06-21 09:00:00 19.6 14 Noroeste 31 Norte 0 -- -- 59
2020-06-21 08:00:00 17.3 8 Norte 21 Norte 0 -- -- 68
2020-06-21 07:00:00 17.4 8 Noroeste 22 Noroeste 0 -- -- 71
2020-06-21 06:00:00 18.3 8 Noroeste 21 Noroeste 0 -- -- 68
2020-06-21 05:00:00 19.5 12 Noroeste 27 Noroeste 0 -- -- 65
2020-06-21 04:00:00 20.8 15 Noroeste 28 Norte 0 -- -- 60
2020-06-21 03:00:00 22.2 13 Noroeste 30 Noroeste 0 -- -- 55
2020-06-21 02:00:00 23.5 13 Noroeste 28 Noroeste 0 -- -- 50
2020-06-21 01:00:00 25 14 Noroeste 29 Noroeste 0 -- -- 46
2020-06-21 00:00:00 25.2 13 Noroeste 28 Noroeste 0 -- -- 47
2020-06-20 23:00:00 24 6 Noroeste 19 Oeste 0 -- -- 45
2020-06-20 22:00:00 24.9 12 Oeste 26 Oeste 0 -- -- 42
2020-06-20 21:00:00 25.9 14 Oeste 28 Oeste 0 -- -- 45
2020-06-20 20:00:00 26.4 16 Oeste 31 Oeste 0 -- -- 39
2020-06-20 19:00:00 25.5 19 Oeste 33 Oeste 0 -- -- 37
2020-06-20 18:00:00 25.5 15 Sudoeste 30 Sudoeste 0 -- -- 40
2020-06-20 17:00:00 24.6 17 Sudoeste 26 Oeste 0 -- -- 46
2020-06-20 16:00:00 24.5 17 Sudoeste 25 Sudoeste 0 -- -- 50
2020-06-20 15:00:00 27.1 11 Sur 19 Sudoeste 0 -- -- 39
2020-06-20 14:00:00 26.4 14 Sudoeste 18 Sur 0 -- -- 39
2020-06-20 13:00:00 25.7 8 Sur 14 Sur 0 -- -- 45
2020-06-20 12:00:00 25.4 6 Sur 14 Sur 0 -- -- 45
2020-06-20 11:00:00 25.2 4 Sudeste 12 Noroeste 0 -- -- 43
2020-06-20 10:00:00 21.9 7 Norte 16 Norte 0 -- -- 47
2020-06-20 09:00:00 18.8 6 Norte 21 Norte 0 -- -- 57
2020-06-20 08:00:00 15 8 Noroeste 14 Norte 0 -- -- 73
2020-06-20 07:00:00 15.1 8 Norte 21 Noroeste 0 -- -- 72
2020-06-20 06:00:00 15.9 9 Noroeste 18 Noroeste 0 -- -- 69
2020-06-20 05:00:00 16.4 9 Noroeste 19 Noroeste 0 -- -- 69
2020-06-20 04:00:00 16.7 6 Noroeste 13 Noroeste 0 -- -- 70
2020-06-20 03:00:00 17.1 5 Noroeste 11 Noroeste 0 -- -- 69
2020-06-20 02:00:00 17.6 4 Noroeste 10 Noroeste 0 -- -- 67
2020-06-20 01:00:00 18.3 5 Noroeste 10 Noroeste 0 -- -- 65
2020-06-20 00:00:00 16.5 5 Noroeste 9 Noroeste 0 -- -- 73
2020-06-19 23:00:00 17.1 4 Noroeste 8 Oeste 0 -- -- 78
2020-06-19 22:00:00 19.2 3 Sudoeste 15 Sudoeste 0 -- -- 75
2020-06-19 21:00:00 20.8 9 Sudoeste 19 Sudoeste 0 -- -- 70
2020-06-19 20:00:00 21 10 Sudoeste 25 Sudoeste 0 -- -- 69
2020-06-19 19:00:00 21.4 15 Sudoeste 31 Sudoeste 0 -- -- 65
2020-06-19 18:00:00 21.9 18 Sudoeste 36 Oeste 0 -- -- 60
2020-06-19 17:00:00 22.2 23 Sudoeste 35 Sudoeste 0 -- -- 58
2020-06-19 16:00:00 22 21 Sudoeste 33 Sudoeste 0 -- -- 57
2020-06-19 15:00:00 21.9 19 Sudoeste 32 Sudoeste 0 -- -- 57
2020-06-19 14:00:00 22.1 17 Sudoeste 33 Sudoeste 0 -- -- 59
2020-06-19 13:00:00 25.9 8 Oeste 24 Oeste 0 -- -- 36
2020-06-19 12:00:00 24.4 9 Noroeste 27 Oeste 0 -- -- 42
2020-06-19 11:00:00 21.7 10 Noroeste 26 Noroeste 0 -- -- 51
2020-06-19 10:00:00 19.8 11 Noroeste 27 Norte 0 -- -- 58
2020-06-19 09:00:00 17.7 13 Noroeste 27 Noroeste 0 -- -- 65
2020-06-19 08:00:00 15.5 8 Noroeste 22 Noroeste 0 -- -- 71
2020-06-19 07:00:00 15.2 10 Noroeste 23 Norte 0 -- -- 71
2020-06-19 06:00:00 15.9 11 Noroeste 25 Noroeste 0 -- -- 69
2020-06-19 05:00:00 16.8 11 Noroeste 29 Norte 0 -- -- 67
2020-06-19 04:00:00 17.8 14 Noroeste 32 Norte 0 -- -- 63
2020-06-19 03:00:00 18.7 13 Noroeste 30 Noroeste 0 -- -- 58
2020-06-19 02:00:00 19.4 13 Noroeste 32 Noroeste 0 -- -- 56
2020-06-19 01:00:00 20.3 14 Noroeste 35 Noroeste 0 -- -- 55
2020-06-19 00:00:00 21.5 17 Noroeste 36 Noroeste 0 -- -- 52
2020-06-18 23:00:00 22.7 15 Noroeste 31 Noroeste 0 -- -- 50
2020-06-18 22:00:00 19.6 4 Oeste 22 Sudoeste 0 -- -- 75
2020-06-18 21:00:00 21 13 Sudoeste 24 Sudoeste 0 -- -- 70
2020-06-18 20:00:00 22 11 Sudoeste 28 Sudoeste 0 -- -- 64
2020-06-18 19:00:00 22.1 17 Sudoeste 31 Sudoeste 0 -- -- 63
2020-06-18 18:00:00 22.3 17 Sudoeste 34 Oeste 0 -- -- 61
2020-06-18 17:00:00 22.1 21 Sudoeste 37 Sudoeste 0 -- -- 61
2020-06-18 16:00:00 21.8 20 Sudoeste 35 Sudoeste 0 -- -- 64
2020-06-18 15:00:00 21.7 18 Sudoeste 34 Sudoeste 0 -- -- 65
2020-06-18 14:00:00 23.5 19 Sudoeste 31 Sudoeste 0 -- -- 55
2020-06-18 13:00:00 26.2 11 Oeste 27 Oeste 0 -- -- 38
2020-06-18 12:00:00 24.1 9 Norte 23 Noroeste 0 -- -- 43
2020-06-18 11:00:00 21 15 Noroeste 30 Norte 0 -- -- 51
2020-06-18 10:00:00 19.3 10 Noroeste 24 Norte 0 -- -- 58
2020-06-18 09:00:00 17 12 Noroeste 28 Noroeste 0 -- -- 65
2020-06-18 08:00:00 14.7 10 Noroeste 25 Norte 0 -- -- 75
2020-06-18 07:00:00 14.7 12 Noroeste 23 Noroeste 0 -- -- 75
2020-06-18 06:00:00 15 9 Noroeste 20 Norte 0 -- -- 75
2020-06-18 05:00:00 15.9 9 Noroeste 21 Noroeste 0 -- -- 72
2020-06-18 04:00:00 16.7 10 Noroeste 22 Noroeste 0 -- -- 70
2020-06-18 03:00:00 17.5 10 Noroeste 26 Noroeste 0 -- -- 66
2020-06-18 02:00:00 18.5 12 Noroeste 29 Noroeste 0 -- -- 61
2020-06-18 01:00:00 19.8 14 Noroeste 28 Noroeste 0 -- -- 55
2020-06-18 00:00:00 20.8 10 Noroeste 24 Noroeste 0 -- -- 49
2020-06-17 23:00:00 20.1 10 Noroeste 18 Noroeste 0 -- -- 59
2020-06-17 22:00:00 20 9 Oeste 22 Oeste 0 -- -- 75
2020-06-17 21:00:00 20.8 15 Sudoeste 25 Sudoeste 0 -- -- 73
2020-06-17 20:00:00 21.5 15 Sudoeste 28 Oeste 0 -- -- 70
2020-06-17 19:00:00 21.9 16 Sudoeste 33 Oeste 0 -- -- 67
2020-06-17 18:00:00 22.2 19 Sudoeste 35 Sudoeste 0 -- -- 65
2020-06-17 17:00:00 22.1 21 Sudoeste 33 Sudoeste 0 -- -- 63
2020-06-17 16:00:00 22.5 20 Sudoeste 39 Sudoeste 0 -- -- 59
2020-06-17 15:00:00 24.5 21 Sudoeste 35 Sudoeste 0 -- -- 55
2020-06-17 14:00:00 27.2 16 Noroeste 30 Oeste 0 -- -- 40
2020-06-17 13:00:00 26 12 Noroeste 27 Norte 0 -- -- 42
2020-06-17 12:00:00 24.4 13 Noroeste 31 Noroeste 0 -- -- 44
2020-06-17 11:00:00 22.7 15 Noroeste 36 Norte 0 -- -- 47
2020-06-17 10:00:00 21 18 Norte 32 Norte 0 -- -- 51
2020-06-17 09:00:00 19.2 15 Norte 28 Norte 0 -- -- 59
2020-06-17 08:00:00 16.9 12 Norte 28 Norte 0 -- -- 69
2020-06-17 07:00:00 16.6 10 Norte 21 Noroeste 0 -- -- 71
2020-06-17 06:00:00 16.8 5 Norte 16 Norte 0 -- -- 71
2020-06-17 05:00:00 18 9 Norte 24 Norte 0 -- -- 69
2020-06-17 04:00:00 18.7 12 Noroeste 26 Noroeste 0 -- -- 70
2020-06-17 03:00:00 18.8 7 Noroeste 19 Noroeste 0 -- -- 72
2020-06-17 02:00:00 19.5 9 Noroeste 23 Noroeste 0 -- -- 69
2020-06-17 01:00:00 20.4 10 Noroeste 23 Noroeste 0 -- -- 66
2020-06-17 00:00:00 21.5 10 Noroeste 22 Noroeste 0 -- -- 63
2020-06-16 23:00:00 22.8 10 Oeste 25 Oeste 0 -- -- 58
2020-06-16 22:00:00 24.5 12 Noroeste 27 Oeste 0 -- -- 51
2020-06-16 21:00:00 26.7 15 Noroeste 39 Oeste 0 -- -- 45
2020-06-16 20:00:00 28 16 Noroeste 38 Norte 0 -- -- 42
2020-06-16 19:00:00 21.6 18 Sudoeste 36 Sudoeste 0 -- -- 74
2020-06-16 18:00:00 23 22 Oeste 43 Sudoeste 0 -- -- 70
2020-06-16 17:00:00 22.3 20 Sudoeste 37 Sudoeste 0 -- -- 73
2020-06-16 16:00:00 22.6 22 Sudoeste 37 Sudoeste 0 -- -- 73
2020-06-16 15:00:00 22.3 19 Sudoeste 31 Sudoeste 0 -- -- 70
2020-06-16 14:00:00 22.5 18 Sudoeste 32 Oeste 0 -- -- 63
2020-06-16 13:00:00 22.1 18 Sudoeste 32 Sudoeste 0 -- -- 58
2020-06-16 12:00:00 21.7 17 Sudoeste 28 Sudoeste 0 -- -- 58
2020-06-16 11:00:00 21.7 13 Sudoeste 22 Sudoeste 0 -- -- 55
2020-06-16 10:00:00 20.9 7 Noroeste 15 Noroeste 0 -- -- 53
2020-06-16 09:00:00 17.5 4 Oeste 10 Noroeste 0 -- -- 71
2020-06-16 08:00:00 16 0 Calma 13 Noroeste 0 -- -- 77
2020-06-16 07:00:00 16 7 Noroeste 22 Noroeste 0 -- -- 75
2020-06-16 06:00:00 16.8 7 Norte 25 Noroeste 0 -- -- 72
2020-06-16 05:00:00 17.9 12 Noroeste 26 Noroeste 0 -- -- 67
2020-06-16 04:00:00 18.6 11 Noroeste 27 Noroeste 0 -- -- 65
2020-06-16 03:00:00 19 15 Noroeste 29 Noroeste 0 -- -- 63
2020-06-16 02:00:00 19.2 13 Noroeste 33 Noroeste 0 -- -- 61
2020-06-16 01:00:00 19.7 14 Noroeste 37 Noroeste 0 -- -- 58
2020-06-16 00:00:00 20.9 13 Noroeste 30 Noroeste 0 -- -- 54
2020-06-15 23:00:00 21.1 10 Noroeste 24 Noroeste 0 -- -- 54
2020-06-15 22:00:00 19.3 6 Oeste 24 Sudoeste 0 -- -- 77
2020-06-15 21:00:00 20.8 14 Sudoeste 28 Sudoeste 0 -- -- 68
2020-06-15 20:00:00 21.6 18 Sudoeste 33 Sudoeste 0 -- -- 65
2020-06-15 19:00:00 22 17 Sudoeste 33 Sudoeste 0 -- -- 62
2020-06-15 18:00:00 21.7 18 Sudoeste 36 Sudoeste 0 -- -- 63
2020-06-15 17:00:00 22.6 22 Oeste 37 Oeste 0 -- -- 54
2020-06-15 16:00:00 22.2 21 Sudoeste 39 Sudoeste 0 -- -- 59
2020-06-15 15:00:00 22 19 Sudoeste 33 Sudoeste 0 -- -- 60
2020-06-15 14:00:00 21.9 16 Sudoeste 28 Sudoeste 0 -- -- 63
2020-06-15 13:00:00 21.8 16 Sudoeste 28 Sudoeste 0 -- -- 62
2020-06-15 12:00:00 23.9 12 Sudoeste 21 Sudoeste 0 -- -- 41
2020-06-15 11:00:00 22.4 8 Noroeste 15 Norte 0 -- -- 48
2020-06-15 10:00:00 20.1 6 Noroeste 14 Noroeste 0 -- -- 59
2020-06-15 09:00:00 17.5 8 Norte 16 Noroeste 0 -- -- 70
2020-06-15 08:00:00 14.5 6 Noroeste 15 Norte 0 -- -- 84
2020-06-15 07:00:00 14.2 8 Noroeste 17 Noroeste 0 -- -- 84
2020-06-15 06:00:00 14.7 8 Noroeste 17 Noroeste 0 -- -- 81
2020-06-15 05:00:00 15.5 8 Noroeste 21 Norte 0 -- -- 78
2020-06-15 04:00:00 16.3 9 Noroeste 24 Noroeste 0 -- -- 75
2020-06-15 03:00:00 17.1 12 Noroeste 29 Oeste 0 -- -- 69
2020-06-15 02:00:00 17.8 11 Noroeste 28 Oeste 0 -- -- 65
2020-06-15 01:00:00 18.9 12 Noroeste 30 Noroeste 0 -- -- 61
2020-06-15 00:00:00 19.6 12 Noroeste 32 Oeste 0 -- -- 56
2020-06-14 23:00:00 17.9 7 Noroeste 24 Sudoeste 0 -- -- 75
2020-06-14 22:00:00 19.1 14 Sudoeste 30 Sudoeste 0 -- -- 75
2020-06-14 21:00:00 20.4 17 Sudoeste 32 Sudoeste 0 -- -- 69
2020-06-14 20:00:00 21 19 Sudoeste 34 Sudoeste 0 -- -- 67
2020-06-14 19:00:00 21.5 21 Sudoeste 37 Sudoeste 0 -- -- 64
2020-06-14 18:00:00 21.8 21 Sudoeste 40 Oeste 0 -- -- 62
2020-06-14 17:00:00 21.8 22 Sudoeste 33 Sudoeste 0 -- -- 60
2020-06-14 16:00:00 21.8 19 Sudoeste 32 Sudoeste 0 -- -- 65
2020-06-14 15:00:00 21.7 19 Sudoeste 31 Sudoeste 0 -- -- 62
2020-06-14 14:00:00 21.6 17 Sudoeste 30 Sudoeste 0 -- -- 63
2020-06-14 13:00:00 21.4 16 Sudoeste 28 Sudoeste 0 -- -- 62
2020-06-14 12:00:00 20.6 18 Sudoeste 28 Oeste 0 -- -- 65
2020-06-14 11:00:00 21.4 12 Sudoeste 17 Sudoeste 0 -- -- 59
2020-06-14 10:00:00 19.8 5 Oeste 15 Oeste 0 -- -- 63
2020-06-14 09:00:00 17.4 6 Noroeste 18 Noroeste 0 -- -- 72
2020-06-14 08:00:00 14.6 10 Noroeste 19 Noroeste 0 -- -- 83
2020-06-14 07:00:00 14.6 9 Noroeste 19 Noroeste 0 -- -- 82
2020-06-14 06:00:00 15.5 7 Noroeste 24 Noroeste 0 -- -- 77
2020-06-14 05:00:00 16.1 10 Noroeste 22 Noroeste 0 -- -- 73
2020-06-14 04:00:00 16.5 9 Noroeste 23 Noroeste 0 -- -- 68
2020-06-14 03:00:00 17.2 11 Noroeste 22 Norte 0 -- -- 62
2020-06-14 02:00:00 17.8 10 Noroeste 25 Noroeste 0 -- -- 60
2020-06-14 01:00:00 18.5 11 Noroeste 23 Noroeste 0 -- -- 56
2020-06-14 00:00:00 18.7 8 Oeste 21 Oeste 0 -- -- 69
2020-06-13 23:00:00 18.6 11 Oeste 24 Oeste 0 -- -- 73
2020-06-13 22:00:00 18.8 13 Oeste 30 Sudoeste 0 -- -- 73
2020-06-13 21:00:00 19.3 16 Sudoeste 30 Sudoeste 0 -- -- 67
2020-06-13 20:00:00 20.3 17 Sudoeste 31 Sudoeste 0 -- -- 68
2020-06-13 19:00:00 21 17 Sudoeste 37 Sudoeste 0 -- -- 66
2020-06-13 18:00:00 21.2 18 Sudoeste 32 Sudoeste 0 -- -- 64
2020-06-13 17:00:00 21.7 18 Sudoeste 30 Sudoeste 0 -- -- 60
2020-06-13 16:00:00 21.2 17 Sudoeste 27 Sudoeste 0 -- -- 63
2020-06-13 15:00:00 21.2 15 Sudoeste 25 Sudoeste 0 -- -- 60
2020-06-13 14:00:00 21 17 Sudoeste 24 Sudoeste 0 -- -- 57
2020-06-13 13:00:00 20.6 14 Sudoeste 25 Sudoeste 0 -- -- 61
2020-06-13 12:00:00 19.6 15 Sudoeste 23 Sudoeste 0 -- -- 69
2020-06-13 11:00:00 18.9 14 Sudoeste 20 Sudoeste 0 -- -- 70
2020-06-13 10:00:00 18.5 5 Oeste 13 Noroeste 0 -- -- 66
2020-06-13 09:00:00 15.6 5 Noroeste 10 Noroeste 0 -- -- 81
2020-06-13 08:00:00 10.4 4 Norte 9 Noroeste 0 -- -- 94
2020-06-13 07:00:00 9.5 5 Noroeste 8 Noroeste 0 -- -- 92
2020-06-13 06:00:00 10.4 3 Norte 9 Noroeste 0 -- -- 92
2020-06-13 05:00:00 10.1 6 Noroeste 10 Noroeste 0 -- -- 93
2020-06-13 04:00:00 10.4 4 Noroeste 6 Noroeste 0 -- -- 85
2020-06-13 03:00:00 12 3 Norte 5 Oeste 0 -- -- 79
2020-06-13 02:00:00 14.6 4 Oeste 10 Oeste 0 -- -- 72
2020-06-13 01:00:00 16 7 Noroeste 14 Noroeste 0 -- -- 65
2020-06-13 00:00:00 17 7 Oeste 17 Oeste 0 -- -- 60
2020-06-12 23:00:00 17.5 8 Oeste 17 Oeste 0 -- -- 61
2020-06-12 22:00:00 18.4 13 Oeste 40 Oeste 0 -- -- 76
2020-06-12 21:00:00 18.7 22 Sudoeste 45 Sudoeste 0 -- -- 72
2020-06-12 20:00:00 19.7 26 Sudoeste 46 Sudoeste 0 -- -- 66
2020-06-12 19:00:00 19.7 28 Sudoeste 49 Oeste 0 -- -- 67
2020-06-12 18:00:00 20.6 24 Sudoeste 41 Sudoeste 0 -- -- 63
2020-06-12 17:00:00 21 22 Sudoeste 37 Sudoeste 0 -- -- 59
2020-06-12 16:00:00 20.9 23 Sudoeste 38 Sudoeste 0 -- -- 56
2020-06-12 15:00:00 20 19 Sudoeste 35 Sudoeste 0 -- -- 58
2020-06-12 14:00:00 20.7 18 Sudoeste 31 Sudoeste 0 -- -- 56
2020-06-12 13:00:00 20.4 14 Sudoeste 24 Noroeste 0 -- -- 55
2020-06-12 12:00:00 21.4 9 Noroeste 24 Oeste 0 -- -- 40
2020-06-12 11:00:00 18.8 8 Oeste 21 Oeste 0 -- -- 59
2020-06-12 10:00:00 18.2 7 Noroeste 16 Noroeste 0 -- -- 61
2020-06-12 09:00:00 16.9 7 Oeste 15 Oeste 0 -- -- 72
2020-06-12 08:00:00 16.2 4 Oeste 10 Noroeste 0 -- -- 80
2020-06-12 07:00:00 16 5 Oeste 13 Oeste 0 -- -- 80
2020-06-12 06:00:00 16.1 4 Noroeste 15 Noroeste 0 -- -- 79
2020-06-12 05:00:00 16.2 9 Noroeste 17 Noroeste 0 -- -- 80
2020-06-12 04:00:00 16.1 5 Oeste 15 Noroeste 0 -- -- 83
2020-06-12 03:00:00 16.7 8 Oeste 21 Oeste 0 -- -- 80
2020-06-12 02:00:00 17 11 Oeste 20 Oeste 0 -- -- 76
2020-06-12 01:00:00 17 9 Oeste 18 Oeste 0 -- -- 86
2020-06-12 00:00:00 16.7 8 Oeste 36 Noroeste 0.2 -- -- 91